createdAt,value
2022-11-20T00:01:40.536Z,44.00
2022-11-20T00:04:12.108Z,41.00
2022-11-20T00:06:39.947Z,44.50
2022-11-20T00:09:10.590Z,40.50
2022-11-20T00:11:40.011Z,42.00
2022-11-20T00:14:07.845Z,41.50
2022-11-20T00:16:36.512Z,44.00
2022-11-20T00:19:05.199Z,39.50
2022-11-20T00:21:33.865Z,40.50
2022-11-20T00:24:02.556Z,50.00
2022-11-20T00:26:31.430Z,42.00
2022-11-20T00:29:02.706Z,46.50
2022-11-20T00:31:34.142Z,42.00
2022-11-20T00:34:01.925Z,42.50
2022-11-20T00:36:33.735Z,45.50
2022-11-20T00:39:02.623Z,48.50
2022-11-20T00:41:31.712Z,40.50
2022-11-20T00:44:00.404Z,32.00
2022-11-20T00:46:30.244Z,34.67
2022-11-20T00:48:59.036Z,39.00
2022-11-20T00:51:29.519Z,50.67
2022-11-20T00:54:01.240Z,51.00
2022-11-20T00:56:30.290Z,49.50
2022-11-20T00:59:02.432Z,49.00
2022-11-20T01:01:31.684Z,43.00
2022-11-20T01:04:01.991Z,33.00
2022-11-20T01:06:37.536Z,36.50
2022-11-20T01:09:13.616Z,43.67
2022-11-20T01:11:45.715Z,42.50
2022-11-20T01:14:20.839Z,45.00
2022-11-20T01:16:52.778Z,50.00
2022-11-20T01:19:24.789Z,33.00
2022-11-20T01:21:55.333Z,43.50
2022-11-20T01:24:24.947Z,60.33
2022-11-20T01:26:54.132Z,51.50
2022-11-20T01:29:26.403Z,50.33
2022-11-20T01:31:55.132Z,52.00
2022-11-20T01:34:24.870Z,50.00
2022-11-20T01:36:55.334Z,59.67
2022-11-20T01:39:27.282Z,51.00
2022-11-20T01:42:15.955Z,60.33
2022-11-20T01:45:00.194Z,53.50
2022-11-20T01:47:45.531Z,55.50
2022-11-20T01:50:28.096Z,65.00
2022-11-20T01:53:09.698Z,54.00
2022-11-20T01:55:53.811Z,61.50
2022-11-20T01:58:33.638Z,55.67
2022-11-20T02:01:04.696Z,47.33
2022-11-20T02:03:34.416Z,49.67
2022-11-20T02:06:30.695Z,54.00
2022-11-20T02:09:00.186Z,60.33
2022-11-20T02:11:34.479Z,58.33
2022-11-20T02:14:03.138Z,60.67
2022-11-20T02:16:45.165Z,57.00
2022-11-20T02:19:32.411Z,59.33
2022-11-20T02:22:20.731Z,58.33
2022-11-20T02:24:52.531Z,60.33
2022-11-20T02:27:23.406Z,48.00
2022-11-20T02:30:08.719Z,39.67
2022-11-20T02:32:39.553Z,57.33
2022-11-20T02:35:29.169Z,62.67
2022-11-20T02:38:02.561Z,35.00
2022-11-20T02:40:31.328Z,54.50
2022-11-20T02:43:00.869Z,59.00
2022-11-20T02:45:29.533Z,58.50
2022-11-20T02:47:59.081Z,53.00
2022-11-20T02:50:28.570Z,46.33
2022-11-20T02:52:57.217Z,61.00
2022-11-20T02:55:25.927Z,54.00
2022-11-20T02:57:53.668Z,49.00
2022-11-20T03:00:22.441Z,55.00
2022-11-20T03:02:51.855Z,55.33
2022-11-20T03:05:21.296Z,59.67
2022-11-20T03:07:50.796Z,60.67
2022-11-20T03:10:19.462Z,58.00
2022-11-20T03:12:47.268Z,28.00
2022-11-20T03:15:14.999Z,41.50
2022-11-20T03:17:43.676Z,57.00
2022-11-20T03:20:13.652Z,54.00
2022-11-20T03:22:42.367Z,54.00
2022-11-20T03:25:11.039Z,52.50
2022-11-20T03:27:40.506Z,63.33
2022-11-20T03:30:10.422Z,62.50
2022-11-20T03:32:39.059Z,55.00
2022-11-20T03:35:09.352Z,58.00
2022-11-20T03:37:38.037Z,50.50
2022-11-20T03:40:07.970Z,55.50
2022-11-20T03:42:48.525Z,54.00
2022-11-20T03:45:19.937Z,60.33
2022-11-20T03:47:49.514Z,59.00
2022-11-20T03:50:18.273Z,60.00
2022-11-20T03:52:46.021Z,59.50
2022-11-20T03:55:13.769Z,59.50
2022-11-20T03:57:43.262Z,89.33
2022-11-20T04:00:14.183Z,53.00
2022-11-20T04:02:42.803Z,55.00
2022-11-20T04:05:10.603Z,60.50
2022-11-20T04:07:39.300Z,57.50
2022-11-20T04:10:09.193Z,52.67
2022-11-20T04:12:37.812Z,57.50
2022-11-20T04:15:06.860Z,62.67
2022-11-20T04:17:34.624Z,60.50
2022-11-20T04:20:04.979Z,62.00
2022-11-20T04:22:32.770Z,59.00
2022-11-20T04:25:02.205Z,69.33
2022-11-20T04:27:32.791Z,99.67
2022-11-20T04:30:01.504Z,62.50
2022-11-20T04:32:30.970Z,64.67
2022-11-20T04:35:00.470Z,64.00
2022-11-20T04:37:29.123Z,66.00
2022-11-20T04:39:57.806Z,61.50
2022-11-20T04:42:29.387Z,56.50
2022-11-20T04:44:59.284Z,52.67
2022-11-20T04:47:28.032Z,57.00
2022-11-20T04:49:55.909Z,59.00
2022-11-20T04:52:24.669Z,60.00
2022-11-20T04:54:54.484Z,58.33
2022-11-20T04:57:23.920Z,60.67
2022-11-20T04:59:52.660Z,50.00
2022-11-20T05:02:22.395Z,59.50
2022-11-20T05:04:50.357Z,56.50
2022-11-20T05:07:18.162Z,61.00
2022-11-20T05:09:46.804Z,59.00
2022-11-20T05:12:15.447Z,54.50
2022-11-20T05:14:44.913Z,70.33
2022-11-20T05:17:13.935Z,60.00
2022-11-20T05:19:42.591Z,54.50
2022-11-20T05:22:12.033Z,54.67
2022-11-20T05:24:40.728Z,59.00
2022-11-20T05:27:10.243Z,64.33
2022-11-20T05:29:39.736Z,65.67
2022-11-20T05:32:10.859Z,54.00
2022-11-20T05:34:38.560Z,48.00
2022-11-20T05:37:07.961Z,56.33
2022-11-20T05:39:37.413Z,44.33
2022-11-20T05:42:25.495Z,55.33
2022-11-20T05:44:54.180Z,54.00
2022-11-20T05:47:22.829Z,53.00
2022-11-20T05:49:51.520Z,59.00
2022-11-20T05:52:19.427Z,66.00
2022-11-20T05:54:48.092Z,43.00
2022-11-20T05:57:17.481Z,56.00
2022-11-20T05:59:45.267Z,52.50
2022-11-20T06:02:13.222Z,29.50
2022-11-20T06:04:43.016Z,57.00
2022-11-20T06:07:12.688Z,74.00
2022-11-20T06:09:41.762Z,63.50
2022-11-20T06:12:14.111Z,67.33
2022-11-20T06:14:42.870Z,60.50
2022-11-20T06:17:12.374Z,76.33
2022-11-20T06:19:41.868Z,77.33
2022-11-20T06:22:11.309Z,74.67
2022-11-20T06:24:40.777Z,63.33
2022-11-20T06:27:09.432Z,53.00
2022-11-20T06:29:38.070Z,49.50
2022-11-20T06:32:07.495Z,49.33
2022-11-20T06:34:36.938Z,52.00
2022-11-20T06:37:06.476Z,62.00
2022-11-20T06:39:35.955Z,60.67
2022-11-20T06:42:04.689Z,55.00
2022-11-20T06:44:33.922Z,61.50
2022-11-20T06:47:02.621Z,65.00
2022-11-20T06:49:32.193Z,76.67
2022-11-20T06:51:59.886Z,58.50
2022-11-20T06:54:28.534Z,59.00
2022-11-20T06:56:57.983Z,76.67
2022-11-20T06:59:27.446Z,69.67
2022-11-20T07:01:57.186Z,89.67
2022-11-20T07:04:26.660Z,69.67
2022-11-20T07:06:56.111Z,68.00
2022-11-20T07:09:25.717Z,58.00
2022-11-20T07:11:55.272Z,56.00
2022-11-20T07:14:24.705Z,59.67
2022-11-20T07:16:53.758Z,57.00
2022-11-20T07:19:22.606Z,60.50
2022-11-20T07:21:52.202Z,68.33
2022-11-20T07:24:21.648Z,70.33
2022-11-20T07:26:51.073Z,63.67
2022-11-20T07:29:20.067Z,55.50
2022-11-20T07:31:50.136Z,58.67
2022-11-20T07:34:19.547Z,62.00
2022-11-20T07:36:49.084Z,61.00
2022-11-20T07:39:18.635Z,54.33
2022-11-20T07:41:48.220Z,62.00
2022-11-20T07:44:17.616Z,62.00
2022-11-20T07:46:47.204Z,58.67
2022-11-20T07:49:16.674Z,63.33
2022-11-20T07:51:47.939Z,65.67
2022-11-20T07:54:22.392Z,65.67
2022-11-20T07:56:51.968Z,68.33
2022-11-20T07:59:21.722Z,64.33
2022-11-20T08:01:51.442Z,62.67
2022-11-20T08:04:20.947Z,67.67
2022-11-20T08:06:50.492Z,62.33
2022-11-20T08:09:20.276Z,60.33
2022-11-20T08:12:07.749Z,64.00
2022-11-20T08:14:37.265Z,61.00
2022-11-20T08:17:06.723Z,64.00
2022-11-20T08:19:35.377Z,60.00
2022-11-20T08:22:04.055Z,61.50
2022-11-20T08:24:33.616Z,59.67
2022-11-20T08:27:03.222Z,75.33
2022-11-20T08:29:32.729Z,72.67
2022-11-20T08:32:02.200Z,71.67
2022-11-20T08:34:31.618Z,66.33
2022-11-20T08:37:03.274Z,69.33
2022-11-20T08:39:32.747Z,64.00
2022-11-20T08:42:01.449Z,65.50
2022-11-20T08:44:30.968Z,67.00
2022-11-20T08:47:00.393Z,62.33
2022-11-20T08:49:29.018Z,53.50
2022-11-20T08:51:59.003Z,61.67
2022-11-20T08:54:28.445Z,70.33
2022-11-20T08:56:57.950Z,76.67
2022-11-20T08:59:50.798Z,73.33
2022-11-20T09:02:16.900Z,74.33
2022-11-20T09:04:46.355Z,75.33
2022-11-20T09:07:15.867Z,67.67
2022-11-20T09:09:46.428Z,79.67
2022-11-20T09:12:16.062Z,74.67
2022-11-20T09:14:45.472Z,68.00
2022-11-20T09:17:16.061Z,60.33
2022-11-20T09:19:45.933Z,58.00
2022-11-20T09:22:14.788Z,55.00
2022-11-20T09:24:44.208Z,60.00
2022-11-20T09:27:13.663Z,65.00
2022-11-20T09:29:43.062Z,60.00
2022-11-20T09:32:12.443Z,67.67
2022-11-20T09:34:41.870Z,59.67
2022-11-20T09:37:11.326Z,60.67
2022-11-20T09:39:40.822Z,53.00
2022-11-20T09:42:41.778Z,51.00
2022-11-20T09:45:45.348Z,54.50
2022-11-20T09:48:52.097Z,58.00
2022-11-20T09:51:52.809Z,56.50
2022-11-20T09:54:32.854Z,58.33
2022-11-20T09:57:20.298Z,68.33
2022-11-20T09:59:57.807Z,54.00
2022-11-20T10:02:50.494Z,59.00
2022-11-20T10:05:51.444Z,66.00
2022-11-20T10:08:37.128Z,60.33
2022-11-20T10:11:34.926Z,78.67
2022-11-20T10:14:26.517Z,68.33
2022-11-20T10:17:56.602Z,69.00
2022-11-20T10:21:05.134Z,75.67
2022-11-20T10:24:04.188Z,76.33
2022-11-20T10:27:15.103Z,85.33
2022-11-20T10:30:17.934Z,67.00
2022-11-20T10:34:10.693Z,66.33
2022-11-20T10:37:18.033Z,66.00
2022-11-20T10:40:25.974Z,73.33
2022-11-20T10:43:25.600Z,63.67
2022-11-20T10:46:22.774Z,50.50
2022-11-20T10:48:53.261Z,66.33
2022-11-20T10:52:11.665Z,67.33
2022-11-20T10:55:33.503Z,59.00
2022-11-20T10:58:24.548Z,58.67
2022-11-20T11:01:03.869Z,70.33
2022-11-20T11:03:33.704Z,64.33
2022-11-20T11:06:24.504Z,59.67
2022-11-20T11:08:58.169Z,66.00
2022-11-20T11:11:35.577Z,55.00
2022-11-20T11:14:15.348Z,50.50
2022-11-20T11:16:58.225Z,51.00
2022-11-20T11:19:27.650Z,59.67
2022-11-20T11:21:58.492Z,47.00
2022-11-20T11:24:46.733Z,53.00
2022-11-20T11:27:19.151Z,13.60
2022-11-20T11:29:48.859Z,48.33
2022-11-20T11:32:23.216Z,55.67
2022-11-20T11:35:23.123Z,54.00
2022-11-20T11:37:56.701Z,68.00
2022-11-20T11:40:37.607Z,53.33
2022-11-20T11:43:41.534Z,54.33
2022-11-20T11:46:56.951Z,51.00
2022-11-20T11:49:25.899Z,46.67
2022-11-20T11:52:23.766Z,45.33
2022-11-20T11:55:02.552Z,57.00
2022-11-20T11:57:58.943Z,65.00
2022-11-20T12:00:28.707Z,59.33
2022-11-20T12:03:29.857Z,66.00
2022-11-20T12:06:15.983Z,58.00
2022-11-20T12:09:06.680Z,66.00
2022-11-20T12:12:11.788Z,57.50
2022-11-20T12:14:47.752Z,43.67
2022-11-20T12:17:20.254Z,32.67
2022-11-20T12:19:49.688Z,48.67
2022-11-20T12:22:53.930Z,62.00
2022-11-20T12:25:33.131Z,50.00
2022-11-20T12:29:01.014Z,46.00
2022-11-20T12:32:23.748Z,42.00
2022-11-20T12:35:36.645Z,53.33
2022-11-20T12:38:54.199Z,33.67
2022-11-20T12:42:34.436Z,55.00
2022-11-20T12:45:15.474Z,51.00
2022-11-20T12:48:18.213Z,55.33
2022-11-20T12:51:43.714Z,62.33
2022-11-20T12:54:47.663Z,62.33
2022-11-20T12:58:14.125Z,61.00
2022-11-20T13:01:48.899Z,72.00
2022-11-20T13:04:48.952Z,76.00
2022-11-20T13:07:19.828Z,58.33
2022-11-20T13:09:55.005Z,53.00
2022-11-20T13:12:43.038Z,55.33
2022-11-20T13:16:08.010Z,63.33
2022-11-20T13:18:43.785Z,62.50
2022-11-20T13:21:24.175Z,57.67
2022-11-20T13:23:53.670Z,66.67
2022-11-20T13:26:25.892Z,51.67
2022-11-20T13:29:19.600Z,62.67
2022-11-20T13:31:50.240Z,57.00
2022-11-20T13:34:29.007Z,61.33
2022-11-20T13:37:04.953Z,56.00
2022-11-20T13:39:38.592Z,59.00
2022-11-20T13:42:13.935Z,59.33
2022-11-20T13:44:55.531Z,56.67
2022-11-20T13:47:28.633Z,59.33
2022-11-20T13:50:00.449Z,61.00
2022-11-20T13:52:35.695Z,54.67
2022-11-20T13:55:27.563Z,28.67
2022-11-20T13:58:43.350Z,46.67
2022-11-20T14:01:24.436Z,45.00
2022-11-20T14:04:10.375Z,56.33
2022-11-20T14:06:48.568Z,50.00
2022-11-20T14:09:31.999Z,60.00
2022-11-20T14:12:03.252Z,60.67
2022-11-20T14:14:37.462Z,62.67
2022-11-20T14:17:34.425Z,66.67
2022-11-20T14:20:12.520Z,46.50
2022-11-20T14:22:51.753Z,62.00
2022-11-20T14:25:32.189Z,58.00
2022-11-20T14:28:04.425Z,64.33
2022-11-20T14:30:49.883Z,95.33
2022-11-20T14:33:20.895Z,79.67
2022-11-20T14:35:58.434Z,54.00
2022-11-20T14:38:33.802Z,65.67
2022-11-20T14:41:30.453Z,63.67
2022-11-20T14:44:00.874Z,50.00
2022-11-20T14:46:30.099Z,47.50
2022-11-20T14:49:03.585Z,77.00
2022-11-20T14:51:42.591Z,97.25
2022-11-20T14:54:25.144Z,102.00
2022-11-20T14:57:02.530Z,97.75
2022-11-20T14:59:35.349Z,101.00
2022-11-20T15:02:11.941Z,122.50
2022-11-20T15:05:00.372Z,183.00
2022-11-20T15:07:41.394Z,144.00
2022-11-20T15:10:32.723Z,138.50
2022-11-20T15:13:38.463Z,88.67
2022-11-20T15:16:21.788Z,84.00
2022-11-20T15:18:51.609Z,137.00
2022-11-20T15:21:23.427Z,101.00
2022-11-20T15:23:52.975Z,99.25
2022-11-20T15:26:29.777Z,87.75
2022-11-20T15:28:59.671Z,84.00
2022-11-20T15:31:29.261Z,84.33
2022-11-20T15:33:58.974Z,90.00
2022-11-20T15:36:28.515Z,82.00
2022-11-20T15:38:58.066Z,89.33
2022-11-20T15:41:28.442Z,114.75
2022-11-20T15:43:58.879Z,142.00
2022-11-20T15:46:39.446Z,190.50
2022-11-20T15:49:16.744Z,213.75
2022-11-20T15:51:51.854Z,204.00
2022-11-20T15:54:24.667Z,194.63
2022-11-20T15:56:57.530Z,190.13
2022-11-20T15:59:27.119Z,213.50
2022-11-20T16:01:54.960Z,163.50
2022-11-20T16:04:25.284Z,198.50
2022-11-20T16:06:55.185Z,172.25
2022-11-20T16:09:24.754Z,164.00
2022-11-20T16:11:55.112Z,170.25
2022-11-20T16:14:41.584Z,173.00
2022-11-20T16:17:15.740Z,145.80
2022-11-20T16:19:46.232Z,135.75
2022-11-20T16:22:14.031Z,161.50
2022-11-20T16:24:44.575Z,168.75
2022-11-20T16:27:16.477Z,154.43
2022-11-20T16:29:47.739Z,155.20
2022-11-20T16:32:16.608Z,124.00
2022-11-20T16:34:46.971Z,155.00
2022-11-20T16:37:17.582Z,148.75
2022-11-20T16:39:45.388Z,158.00
2022-11-20T16:42:13.192Z,161.50
2022-11-20T16:44:46.490Z,183.25
2022-11-20T16:47:17.773Z,167.00
2022-11-20T16:49:47.350Z,178.25
2022-11-20T16:52:17.837Z,182.00
2022-11-20T16:54:48.296Z,179.50
2022-11-20T16:57:17.867Z,178.50
2022-11-20T16:59:45.671Z,170.50
2022-11-20T17:02:16.968Z,175.00
2022-11-20T17:04:47.417Z,154.75
2022-11-20T17:07:17.060Z,171.67
2022-11-20T17:09:46.748Z,194.00
2022-11-20T17:12:16.460Z,195.25
2022-11-20T17:14:46.156Z,195.75
2022-11-20T17:17:14.022Z,163.00
2022-11-20T17:19:43.603Z,188.25
2022-11-20T17:22:11.357Z,189.00
2022-11-20T17:24:41.834Z,248.33
2022-11-20T17:27:11.682Z,204.75
2022-11-20T17:29:42.223Z,224.00
2022-11-20T17:32:12.074Z,209.50
2022-11-20T17:34:41.815Z,210.75
2022-11-20T17:37:11.461Z,228.75
2022-11-20T17:39:41.936Z,254.75
2022-11-20T17:42:30.101Z,212.00
2022-11-20T17:44:59.833Z,227.75
2022-11-20T17:47:29.436Z,222.75
2022-11-20T17:49:59.146Z,200.50
2022-11-20T17:52:28.804Z,182.75
2022-11-20T17:54:59.746Z,187.00
2022-11-20T17:57:52.231Z,187.00
2022-11-20T18:00:25.933Z,182.00
2022-11-20T18:02:56.573Z,195.25
2022-11-20T18:05:27.444Z,196.50
2022-11-20T18:07:57.177Z,187.50
2022-11-20T18:10:30.167Z,225.25
2022-11-20T18:12:59.849Z,295.00
2022-11-20T18:15:30.158Z,260.25
2022-11-20T18:17:59.784Z,232.00
2022-11-20T18:20:32.982Z,221.50
2022-11-20T18:23:03.174Z,214.00
2022-11-20T18:25:32.788Z,227.25
2022-11-20T18:28:02.403Z,265.50
2022-11-20T18:30:32.016Z,256.75
2022-11-20T18:33:01.643Z,280.50
2022-11-20T18:35:32.421Z,253.75
2022-11-20T18:38:02.930Z,240.50
2022-11-20T18:40:36.886Z,240.00
2022-11-20T18:43:25.176Z,206.75
2022-11-20T18:46:03.990Z,201.25
2022-11-20T18:48:33.668Z,157.67
2022-11-20T18:51:08.029Z,226.75
2022-11-20T18:53:44.349Z,240.75
2022-11-20T18:56:16.742Z,268.00
2022-11-20T18:58:46.368Z,272.50
2022-11-20T19:01:16.061Z,227.00
2022-11-20T19:03:47.290Z,279.75
2022-11-20T19:06:18.495Z,278.00
2022-11-20T19:08:49.304Z,241.00
2022-11-20T19:11:20.953Z,262.33
2022-11-20T19:13:51.435Z,270.00
2022-11-20T19:16:22.635Z,273.00
2022-11-20T19:18:54.177Z,234.75
2022-11-20T19:21:26.933Z,234.75
2022-11-20T19:24:01.148Z,227.00
2022-11-20T19:26:31.123Z,162.25
2022-11-20T19:29:00.048Z,118.00
2022-11-20T19:31:29.989Z,113.33
2022-11-20T19:34:04.804Z,110.67
2022-11-20T19:36:43.129Z,108.00
2022-11-20T19:39:15.545Z,109.00
2022-11-20T19:41:45.198Z,104.33
2022-11-20T19:44:19.926Z,140.25
2022-11-20T19:46:51.074Z,141.00
2022-11-20T19:49:20.930Z,119.00
2022-11-20T19:51:51.785Z,180.00
2022-11-20T19:54:19.656Z,222.00
2022-11-20T19:56:52.060Z,157.00
2022-11-20T19:59:22.949Z,140.25
2022-11-20T20:01:53.691Z,134.25
2022-11-20T20:04:24.187Z,135.50
2022-11-20T20:06:53.771Z,110.67
2022-11-20T20:09:26.739Z,142.25
2022-11-20T20:11:57.441Z,129.00
2022-11-20T20:14:27.115Z,91.75
2022-11-20T20:16:57.675Z,124.50
2022-11-20T20:19:27.481Z,111.00
2022-11-20T20:21:59.759Z,110.00
2022-11-20T20:24:31.785Z,117.67
2022-11-20T20:27:02.230Z,130.00
2022-11-20T20:29:31.521Z,145.50
2022-11-20T20:32:02.057Z,153.75
2022-11-20T20:34:32.523Z,158.25
2022-11-20T20:37:05.273Z,148.50
2022-11-20T20:39:35.870Z,144.75
2022-11-20T20:42:04.634Z,123.33
2022-11-20T20:44:53.644Z,141.00
2022-11-20T20:47:24.185Z,140.25
2022-11-20T20:49:54.624Z,145.25
2022-11-20T20:52:28.101Z,130.00
2022-11-20T20:54:58.594Z,232.75
2022-11-20T20:57:29.319Z,183.75
2022-11-20T20:59:59.024Z,254.33
2022-11-20T21:02:28.786Z,346.00
2022-11-20T21:04:59.710Z,165.67
2022-11-20T21:07:30.205Z,179.75
2022-11-20T21:09:57.983Z,146.50
2022-11-20T21:12:27.607Z,124.33
2022-11-20T21:14:57.283Z,108.00
2022-11-20T21:17:27.725Z,91.00
2022-11-20T21:19:57.246Z,98.00
2022-11-20T21:22:26.851Z,105.67
2022-11-20T21:24:56.388Z,89.67
2022-11-20T21:27:25.963Z,95.00
2022-11-20T21:29:58.259Z,87.33
2022-11-20T21:32:27.723Z,94.33
2022-11-20T21:34:57.295Z,97.00
2022-11-20T21:37:26.830Z,97.00
2022-11-20T21:39:56.345Z,84.00
2022-11-20T21:42:25.882Z,85.67
2022-11-20T21:44:55.384Z,82.00
2022-11-20T21:47:27.863Z,86.67
2022-11-20T21:49:57.332Z,79.00
2022-11-20T21:52:26.904Z,81.67
2022-11-20T21:54:56.355Z,78.33
2022-11-20T21:57:25.836Z,80.67
2022-11-20T21:59:55.330Z,87.33
2022-11-20T22:02:24.941Z,99.33
2022-11-20T22:04:54.532Z,96.33
2022-11-20T22:07:24.085Z,91.67
2022-11-20T22:09:53.671Z,89.67
2022-11-20T22:12:23.575Z,94.00
2022-11-20T22:14:53.067Z,90.67
2022-11-20T22:17:42.493Z,82.33
2022-11-20T22:20:12.200Z,79.00
2022-11-20T22:22:41.795Z,90.33
2022-11-20T22:25:11.315Z,83.33
2022-11-20T22:27:40.886Z,89.33
2022-11-20T22:30:11.285Z,85.00
2022-11-20T22:32:40.736Z,87.67
2022-11-20T22:35:10.439Z,84.33
2022-11-20T22:37:39.987Z,87.00
2022-11-20T22:40:10.565Z,82.33
2022-11-20T22:42:40.149Z,89.67
2022-11-20T22:45:11.040Z,86.67
2022-11-20T22:47:41.199Z,87.67
2022-11-20T22:50:10.836Z,82.33
2022-11-20T22:52:40.335Z,80.67
2022-11-20T22:55:15.978Z,87.67
2022-11-20T22:57:45.869Z,93.33
2022-11-20T23:00:16.409Z,97.67
2022-11-20T23:02:46.762Z,99.67
2022-11-20T23:05:16.279Z,93.33
2022-11-20T23:07:45.987Z,98.33
2022-11-20T23:10:15.639Z,109.67
2022-11-20T23:12:45.190Z,96.67
2022-11-20T23:15:14.900Z,98.67
2022-11-20T23:17:44.490Z,96.33
2022-11-20T23:20:14.211Z,98.00
2022-11-20T23:22:43.717Z,90.33
2022-11-20T23:25:13.234Z,97.00
2022-11-20T23:27:42.842Z,95.33
2022-11-20T23:30:12.990Z,99.00
2022-11-20T23:32:42.536Z,98.33
2022-11-20T23:35:12.153Z,94.33
2022-11-20T23:37:41.682Z,98.67
2022-11-20T23:40:11.871Z,97.67
2022-11-20T23:43:01.400Z,94.33
2022-11-20T23:45:31.048Z,96.33
2022-11-20T23:48:00.590Z,94.33
2022-11-20T23:50:30.154Z,96.67
2022-11-20T23:52:59.739Z,99.00
2022-11-20T23:55:29.295Z,92.33
2022-11-20T23:57:58.909Z,90.00
